• Join FlightAware (Why Join?)
  • Login
  • US Flag 
12:00AM EST


 

Airport Tracker/Info


-or-


 

Live Flight TrackerFlight Track Log ✈ UAL1177 ✈ 14-May-2013 ✈ KDEN - KPDX

Flight Track Log - Related Links

Times and Time Zones

All times are in EDT time to prevent confusion due to time zone crossing. See the UAL1177 flight status page for this flight to view local times or setup timezone preferences in your user account.

Time Position Orientation Groundspeed Altitude Reporting Facility
EDT Latitude Longitude Course Direction KTS MPH feet Rate Location/Type
10:14PM 39.8409 -104.7220 180° South 191 220 5,500  Level FlightAware ADS-B
10:14PM 39.8411 -104.7310 272° West 181 208 6,000 2,727 Climbing FlightAware ADS-B
10:15PM 39.8418 -104.7460 273° West 183 211 6,500 2,211 Climbing FlightAware ADS-B
10:15PM 39.8425 -104.7530 277° West 191 220 6,700 1,714 Climbing FlightAware ADS-B
10:15PM 39.8440 -104.7620 282° West 200 230 6,900 1,385 Climbing FlightAware ADS-B
10:15PM 39.8455 -104.7680 288° West 205 236 7,000 1,333 Climbing FlightAware ADS-B
10:15PM 39.8469 -104.7720 295° West 210 242 7,100 1,714 Climbing FlightAware ADS-B
10:15PM 39.8482 -104.7760 293° West 212 244 7,200 1,714 Climbing FlightAware ADS-B
10:15PM 39.8538 -104.7880 301° West 224 258 7,500 1,250 Climbing FlightAware ADS-B
10:15PM 39.8610 -104.8030 302° West 241 277 7,700 1,241 Climbing FlightAware ADS-B
10:16PM 39.8717 -104.8230 305° West 260 299 8,100 1,636 Climbing FlightAware ADS-B
10:16PM 39.8767 -104.8300 313° West 264 304 8,300 1,333 Climbing FlightAware ADS-B
10:16PM 39.8798 -104.8340 315° West 272 313 8,300 1,500 Level FlightAware ADS-B
10:16PM 39.8844 -104.8380 326° Northwest 276 318 8,500 2,182 Climbing FlightAware ADS-B
10:16PM 39.8919 -104.8430 333° Northwest 282 325 8,700 2,087 Climbing FlightAware ADS-B
10:16PM 39.9141 -104.8490 348° North 293 337 9,300 2,250 Climbing FlightAware ADS-B
10:17PM 39.9347 -104.8520 354° North 301 346 9,900 2,341 Climbing FlightAware ADS-B
10:17PM 39.9708 -104.8580 353° North 311 358 10,900 1,821 Climbing FlightAware ADS-B
10:17PM 40.0155 -104.8690 349° North 342 394 11,600 984 Climbing FlightAware ADS-B
10:18PM 40.0647 -104.8830 348° North 353 406 11,900 484 Climbing FlightAware ADS-B
10:18PM 40.1136 -104.8960 349° North 342 394 12,100 968 Climbing FlightAware ADS-B
10:19PM 40.1609 -104.9090 348° North 342 394 12,900 1,869 Climbing FlightAware ADS-B
10:19PM 40.2087 -104.9210 349° North 352 405 14,000 2,459 Climbing FlightAware ADS-B
10:20PM 40.2583 -104.9340 349° North 356 410 15,400 2,754 Climbing FlightAware ADS-B
10:21PM 40.3077 -104.9470 349° North 356 410 16,800 2,754 Climbing FlightAware ADS-B
10:21PM 40.3568 -104.9600 349° North 357 411 18,200 2,656 Climbing FlightAware ADS-B
10:22PM 40.4065 -104.9730 349° North 363 418 19,500 2,400 Climbing FlightAware ADS-B
10:22PM 40.4568 -104.9870 348° North 370 426 20,600 2,164 Climbing FlightAware ADS-B
10:23PM 40.5084 -105.0000 349° North 375 432 21,700 2,066 Climbing FlightAware ADS-B
10:23PM 40.5610 -105.0140 349° North 386 444 22,700 1,300 Climbing FlightAware ADS-B
10:24PM 40.6146 -105.0280 349° North 392 451 23,000 1,082 Climbing FlightAware ADS-B
10:24PM 40.6696 -105.0430 348° North 395 455 23,800 1,645 Climbing FlightAware ADS-B
10:25PM 40.7244 -105.0570 349° North 399 459 24,700 1,867 Climbing FlightAware ADS-B
10:25PM 40.7496 -105.0670 343° North 400 460 25,200 1,765 Climbing FlightAware ADS-B
10:25PM 40.7821 -105.0890 333° Northwest 403 464 25,700 1,655 Climbing FlightAware ADS-B
10:25PM 40.7959 -105.1030 322° Northwest 404 465 26,000 1,714 Climbing FlightAware ADS-B
10:25PM 40.8122 -105.1220 319° Northwest 406 467 26,300 1,448 Climbing FlightAware ADS-B
10:26PM 40.8328 -105.1560 309° West 407 468 26,700 1,375 Climbing FlightAware ADS-B
10:26PM 40.8580 -105.2210 297° West 413 475 27,400 1,364 Climbing FlightAware
10:27PM 40.8688 -105.2550 293° West 416 479 27,700 1,412 Climbing FlightAware ADS-B
10:28PM 40.9230 -105.4160 294° West 426 490 29,400 1,393 Climbing FlightAware
10:28PM 40.9580 -105.5170 295° West 430 495 30,300 1,275 Climbing FlightAware
10:29PM 40.9890 -105.6090 294° West 432 497 31,100 1,238 Climbing FlightAware
10:29PM 41.0097 -105.6710 294° West 432 497 31,600 1,200 Climbing FlightAware ADS-B
10:30PM 41.0580 -105.8150 294° West 435 501 32,800 1,290 Climbing FlightAware
10:31PM 41.0960 -105.9290 294° West 433 498 33,900 1,200 Climbing FlightAware
10:32PM 41.1270 -106.0200 294° West 434 499 34,500 758 Climbing FlightAware
10:33PM 41.1700 -106.1530 293° West 435 501 35,100 1,074 Climbing FlightAware
10:33PM 41.2060 -106.2570 295° West 434 499 36,200 1,059 Climbing FlightAware
10:34PM 41.2380 -106.3570 293° West 430 495 36,600 743 Climbing FlightAware
10:35PM 41.2830 -106.4940 294° West 424 488 37,500 540 Climbing FlightAware
10:36PM 41.3090 -106.5760 293° West 424 488 37,500  Level FlightAware
10:37PM 41.3350 -106.6570 293° West 424 488 37,500  Level FlightAware
10:37PM 41.3610 -106.7390 293° West 424 488 37,500  Level FlightAware
10:38PM 41.3870 -106.8210 293° West 424 488 37,500  Level FlightAware
10:39PM 41.4140 -106.9030 294° West 424 488 37,500  Level FlightAware
10:39PM 41.4460 -107.0050 293° West 424 488 37,500  Level FlightAware
10:40PM 41.4720 -107.0870 293° West 424 488 37,500  Level FlightAware
10:41PM 41.4980 -107.1690 293° West 424 488 37,500  Level FlightAware
10:41PM 41.5240 -107.2510 293° West 424 488 37,500  Level FlightAware
10:42PM 41.5500 -107.3330 293° West 424 488 37,500  Level FlightAware
10:43PM 41.5830 -107.4360 293° West 424 488 37,500  Level FlightAware
10:44PM 41.6090 -107.5180 293° West 424 488 37,500  Level FlightAware
10:44PM 41.6350 -107.6000 293° West 424 488 37,500 297 Level FlightAware
10:45PM 41.7394 -107.9153 293° West 409 471 38,000 246 Climbing Denver Center
10:46PM 41.7878 -108.0717 293° West 408 470 38,000  Level Denver Center
10:47PM 41.8278 -108.2061 292° West 407 468 38,000  Level Salt Lake Center
10:48PM 41.8700 -108.3425 293° West 413 475 38,000  Level Salt Lake Center
10:49PM 41.9217 -108.5044 293° West 424 488 38,000  Level Salt Lake Center
10:50PM 41.9633 -108.6425 292° West 422 486 38,000  Level Salt Lake Center
10:51PM 42.0125 -108.8053 292° West 422 486 38,000  Level Salt Lake Center
10:52PM 42.0550 -108.9478 292° West 428 493 38,000  Level Salt Lake Center
10:53PM 42.0972 -109.0886 292° West 427 491 38,000  Level Salt Lake Center
10:54PM 42.1453 -109.2536 291° West 426 490 38,000  Level Salt Lake Center
10:55PM 42.1867 -109.3975 291° West 430 495 38,000  Level Salt Lake Center
10:56PM 42.2344 -109.5597 292° West 421 484 38,000  Level Salt Lake Center
10:57PM 42.2753 -109.7000 292° West 421 484 38,000  Level Salt Lake Center
10:58PM 42.3161 -109.8400 292° West 421 484 38,000  Level Salt Lake Center
11:00PM 42.3642 -110.0053 292° West 423 487 38,000  Level Salt Lake Center
11:01PM 42.4050 -110.1469 291° West 423 487 38,000  Level Salt Lake Center
11:02PM 42.4514 -110.3133 291° West 425 489 38,000  Level Salt Lake Center
11:03PM 42.4925 -110.4536 292° West 421 484 38,000  Level Salt Lake Center
11:04PM 42.5381 -110.6178 291° West 418 481 38,000  Level Salt Lake Center
11:05PM 42.5778 -110.7600 291° West 421 484 38,000  Level Salt Lake Center
11:06PM 42.6181 -110.9028 291° West 424 488 38,000  Level Salt Lake Center
11:07PM 42.6603 -111.0586 290° West 424 488 38,000  Level Salt Lake Center
11:08PM 42.7014 -111.2081 291° West 423 487 38,000  Level Salt Lake Center
11:09PM 42.7450 -111.3653 291° West 425 489 38,000  Level Salt Lake Center
11:10PM 42.7914 -111.5311 291° West 422 486 38,000  Level Salt Lake Center
11:11PM 42.8289 -111.6728 290° West 417 480 38,000  Level Salt Lake Center
11:12PM 42.8669 -111.8147 290° West 416 479 38,000  Level Salt Lake Center
11:13PM 42.9106 -111.9811 290° West 417 480 38,000  Level Salt Lake Center
11:14PM 42.9494 -112.1231 291° West 416 479 38,000  Level Salt Lake Center
11:15PM 42.9928 -112.2911 289° West 420 483 38,000  Level Salt Lake Center
11:16PM 43.0311 -112.4350 290° West 421 484 38,000  Level Salt Lake Center
11:17PM 43.0681 -112.5789 289° West 419 482 38,000  Level Salt Lake Center
11:18PM 43.1114 -112.7464 290° West 417 480 38,000  Level Salt Lake Center
11:19PM 43.1486 -112.8886 290° West 416 479 38,000  Level Salt Lake Center
11:20PM 43.1836 -113.0283 289° West 409 471 38,000  Level Salt Lake Center
11:21PM 43.2264 -113.1964 289° West 415 478 38,000  Level Salt Lake Center
11:22PM 43.2633 -113.3428 289° West 422 486 38,000  Level Salt Lake Center
11:23PM 43.3167 -113.5092 294° West 426 490 38,000  Level Salt Lake Center
11:24PM 43.3617 -113.6528 293° West 427 491 38,000  Level Salt Lake Center
11:25PM 43.4072 -113.7953 294° West 426 490 38,000  Level Salt Lake Center
11:26PM 43.4561 -113.9528 293° West 437 503 38,000  Level Salt Lake Center
11:27PM 43.5078 -114.1186 293° West 423 487 38,000  Level Salt Lake Center
11:28PM 43.5528 -114.2611 294° West 425 489 38,000  Level Salt Lake Center
11:29PM 43.5967 -114.4036 293° West 422 486 38,000  Level Salt Lake Center
11:30PM 43.6467 -114.5683 293° West 419 482 38,000  Level Salt Lake Center
11:31PM 43.6914 -114.7128 293° West 426 490 38,000  Level Salt Lake Center
11:32PM 43.7356 -114.8597 293° West 431 496 38,000  Level Salt Lake Center
11:33PM 43.7886 -115.0311 293° West 433 498 38,000  Level Salt Lake Center
11:34PM 43.8317 -115.1767 292° West 427 491 38,000  Level Salt Lake Center
11:35PM 43.8825 -115.3461 293° West 426 490 38,000  Level Salt Lake Center
11:36PM 43.9253 -115.4922 292° West 425 489 38,000  Level Salt Lake Center
11:37PM 43.9681 -115.6378 292° West 424 488 38,000  Level Salt Lake Center
11:38PM 44.0175 -115.8064 292° West 420 483 38,000  Level Salt Lake Center
11:39PM 44.0600 -115.9528 292° West 423 487 38,000  Level Salt Lake Center
11:40PM 44.1028 -116.1003 292° West 424 488 38,000  Level Salt Lake Center
11:41PM 44.1453 -116.2478 292° West 424 488 38,000  Level Salt Lake Center
11:42PM 44.1931 -116.4186 291° West 420 483 38,000  Level Salt Lake Center
11:43PM 44.2344 -116.5631 292° West 417 480 38,000  Level Salt Lake Center
11:44PM 44.2747 -116.7075 291° West 416 479 38,000  Level Salt Lake Center
11:45PM 44.3219 -116.8728 292° West 410 472 38,000  Level Salt Lake Center
11:46PM 44.3617 -117.0144 291° West 411 473 38,000  Level Salt Lake Center
11:47PM 44.4014 -117.1561 291° West 408 470 38,000  Level Salt Lake Center
11:48PM 44.4458 -117.3222 291° West 408 470 38,000  Level Salt Lake Center
11:49PM 44.4864 -117.4650 292° West 411 473 38,000  Level Salt Lake Center
11:50PM 44.5242 -117.6075 290° West 409 471 38,000  Level Salt Lake Center
11:52PM 44.5694 -117.7750 291° West 412 474 38,000  Level Salt Lake Center
11:53PM 44.6086 -117.9186 291° West 412 474 38,000  Level Salt Lake Center
11:54PM 44.6472 -118.0667 290° West 415 478 38,000  Level Salt Lake Center
11:55PM 44.6881 -118.2167 291° West 414 476 38,000  Level Seattle Center
11:56PM 44.7269 -118.3664 290° West 412 474 38,000  Level Seattle Center
11:57PM 44.7653 -118.5153 290° West 408 470 38,000  Level Seattle Center
11:58PM 44.8053 -118.6625 291° West 405 466 38,000  Level Seattle Center
11:59PM 44.8422 -118.8111 289° West 403 464 38,000  Level Seattle Center
12:00AM 44.8819 -118.9581 291° West 403 464 38,000  Level Seattle Center
12:01AM 44.9189 -119.1050 290° West 401 461 38,000  Level Seattle Center
12:02AM 44.9644 -119.2833 290° West 403 464 38,000  Level Seattle Center
12:03AM 45.0014 -119.4294 290° West 400 460 38,000 -621 Level Seattle Center
12:08AM 45.2090 -120.2750 290° West 397 457 33,800 -646 Descending FlightAware
12:09AM 45.2310 -120.3720 288° West 397 457 33,800  Level FlightAware
12:10AM 45.2500 -120.4570 288° West 397 457 33,800  Level FlightAware
12:11AM 45.2740 -120.5620 288° West 397 457 33,800  Level FlightAware
12:11AM 45.2940 -120.6470 289° West 397 457 33,800  Level FlightAware
12:12AM 45.3130 -120.7310 288° West 397 457 33,800  Level FlightAware
12:13AM 45.3320 -120.8150 288° West 397 457 33,800  Level FlightAware
12:13AM 45.3520 -120.9000 289° West 397 457 33,800  Level FlightAware
12:14AM 45.3760 -121.0060 288° West 397 457 33,800  Level FlightAware
12:15AM 45.3950 -121.0900 288° West 397 457 33,800  Level FlightAware
12:15AM 45.4140 -121.1750 288° West 397 457 33,800  Level FlightAware
12:16AM 45.4330 -121.2590 288° West 397 457 33,800  Level FlightAware
12:17AM 45.4530 -121.3440 289° West 397 457 33,800  Level FlightAware
12:18AM 45.4770 -121.4500 288° West 397 457 33,800  Level FlightAware
12:18AM 45.4960 -121.5350 288° West 397 457 33,800 -18,290 Level FlightAware
12:19AM 45.5592 -121.5769 288° West 294 338 14,900 -15,036 Descending Seattle Center
12:20AM 45.5456 -121.6878 260° West 280 322 13,000 -1,686 Descending Seattle Center
12:21AM 45.5378 -121.7964 264° West 274 315 11,500 -1,636 Descending Seattle Center
12:22AM 45.5372 -121.9078 270° West 260 299 9,700 -1,672 Descending Seattle Center
12:23AM 45.5375 -122.0128 270° West 266 306 8,100 -1,465 Descending Seattle Center
12:24AM 45.5381 -122.1208 270° West 260 299 6,600 -1,227 Descending Seattle Center
12:25AM 45.5389 -122.2289 271° West 261 300 5,400 -934 Descending Seattle Center
12:26AM 45.5356 -122.3100 267° West 226 260 4,700 -1,086 Descending Seattle Center
12:27AM 45.5347 -122.3908 269° West 181 208 3,300 -1,339 Descending Seattle Center
12:28AM 45.5389 -122.4539 275° West 148 170 2,000 -1,091 Descending Seattle Center
12:29AM 45.5578 -122.5047 298° West 146 168 1,100 -843 Descending Seattle Center
12:30AM 45.5789 -122.5547 301° West 143 165 300 -787 Descending Seattle Center